sensor_id;sensor_type;location;lat;lon;timestamp;pressure;altitude;pressure_sealevel;temperature;humidity
73297;BME280;61524;50.938;11.396;2022-09-09T00:00:43;98635.16;;;11.24;100.00
73297;BME280;61524;50.938;11.396;2022-09-09T00:03:16;98637.59;;;11.26;100.00
73297;BME280;61524;50.938;11.396;2022-09-09T00:08:22;98638.09;;;11.23;100.00
73297;BME280;61524;50.938;11.396;2022-09-09T00:11:01;98634.59;;;11.17;100.00
73297;BME280;61524;50.938;11.396;2022-09-09T00:13:52;98639.44;;;11.20;100.00
73297;BME280;61524;50.938;11.396;2022-09-09T00:16:25;98633.00;;;11.16;100.00
73297;BME280;61524;50.938;11.396;2022-09-09T00:21:39;98631.41;;;11.15;100.00
73297;BME280;61524;50.938;11.396;2022-09-09T00:24:24;98631.91;;;11.12;100.00
73297;BME280;61524;50.938;11.396;2022-09-09T00:26:57;98619.59;;;11.11;100.00
73297;BME280;61524;50.938;11.396;2022-09-09T00:32:34;98630.31;;;11.11;100.00
73297;BME280;61524;50.938;11.396;2022-09-09T00:38:28;98631.41;;;11.15;100.00
73297;BME280;61524;50.938;11.396;2022-09-09T00:43:39;98632.47;;;11.14;100.00
73297;BME280;61524;50.938;11.396;2022-09-09T00:46:41;98637.81;;;11.14;100.00
73297;BME280;61524;50.938;11.396;2022-09-09T00:55:03;98622.06;;;11.23;100.00
73297;BME280;61524;50.938;11.396;2022-09-09T00:57:33;98624.25;;;11.31;100.00
73297;BME280;61524;50.938;11.396;2022-09-09T01:02:58;98618.63;;;11.33;100.00
73297;BME280;61524;50.938;11.396;2022-09-09T01:10:54;98600.19;;;11.36;100.00
73297;BME280;61524;50.938;11.396;2022-09-09T01:15:50;98607.94;;;11.38;100.00
73297;BME280;61524;50.938;11.396;2022-09-09T01:18:21;98606.59;;;11.40;100.00
73297;BME280;61524;50.938;11.396;2022-09-09T01:24:14;98605.56;;;11.36;100.00
73297;BME280;61524;50.938;11.396;2022-09-09T01:26:45;98596.16;;;11.28;100.00
73297;BME280;61524;50.938;11.396;2022-09-09T01:29:17;98594.00;;;11.25;100.00
73297;BME280;61524;50.938;11.396;2022-09-09T01:31:59;98592.91;;;11.21;100.00
73297;BME280;61524;50.938;11.396;2022-09-09T01:34:28;98589.69;;;11.14;100.00
73297;BME280;61524;50.938;11.396;2022-09-09T01:37:02;98587.53;;;11.16;100.00
73297;BME280;61524;50.938;11.396;2022-09-09T01:39:30;98593.44;;;11.23;100.00
73297;BME280;61524;50.938;11.396;2022-09-09T01:41:56;98584.91;;;11.21;100.00
73297;BME280;61524;50.938;11.396;2022-09-09T01:44:22;98591.56;;;11.19;100.00
73297;BME280;61524;50.938;11.396;2022-09-09T01:46:48;98600.66;;;11.18;100.00
73297;BME280;61524;50.938;11.396;2022-09-09T01:49:14;98590.25;;;11.21;100.00
73297;BME280;61524;50.938;11.396;2022-09-09T01:51:42;98600.69;;;11.28;100.00
73297;BME280;61524;50.938;11.396;2022-09-09T01:54:08;98596.44;;;11.37;100.00
73297;BME280;61524;50.938;11.396;2022-09-09T02:02:40;98598.38;;;11.62;100.00
73297;BME280;61524;50.938;11.396;2022-09-09T02:08:05;98616.44;;;12.07;99.02
73297;BME280;61524;50.938;11.396;2022-09-09T02:10:37;98620.19;;;12.17;98.50
73297;BME280;61524;50.938;11.396;2022-09-09T02:13:10;98614.03;;;12.37;97.46
73297;BME280;61524;50.938;11.396;2022-09-09T02:18:08;98625.53;;;12.57;95.68
73297;BME280;61524;50.938;11.396;2022-09-09T02:20:39;98622.31;;;12.60;95.13
73297;BME280;61524;50.938;11.396;2022-09-09T02:23:06;98627.94;;;12.59;94.81
73297;BME280;61524;50.938;11.396;2022-09-09T02:25:35;98625.53;;;12.52;95.57
73297;BME280;61524;50.938;11.396;2022-09-09T02:28:04;98625.81;;;12.51;95.65
73297;BME280;61524;50.938;11.396;2022-09-09T02:30:33;98622.34;;;12.45;95.90
73297;BME280;61524;50.938;11.396;2022-09-09T02:33:01;98619.94;;;12.54;95.62
73297;BME280;61524;50.938;11.396;2022-09-09T02:35:30;98613.19;;;12.67;95.16
73297;BME280;61524;50.938;11.396;2022-09-09T02:38:00;98611.84;;;12.69;95.07
73297;BME280;61524;50.938;11.396;2022-09-09T02:40:27;98611.84;;;12.69;94.77
73297;BME280;61524;50.938;11.396;2022-09-09T02:42:54;98611.31;;;12.67;94.92
73297;BME280;61524;50.938;11.396;2022-09-09T02:45:23;98604.34;;;12.71;94.50
73297;BME280;61524;50.938;11.396;2022-09-09T02:47:59;98609.72;;;12.76;93.94
73297;BME280;61524;50.938;11.396;2022-09-09T02:54:02;98612.41;;;12.71;93.92
73297;BME280;61524;50.938;11.396;2022-09-09T02:56:20;98604.34;;;12.66;93.97
73297;BME280;61524;50.938;11.396;2022-09-09T02:58:47;98606.25;;;12.66;94.03
73297;BME280;61524;50.938;11.396;2022-09-09T03:01:13;98609.97;;;12.75;93.63
73297;BME280;61524;50.938;11.396;2022-09-09T03:03:39;98621.22;;;12.82;93.11
73297;BME280;61524;50.938;11.396;2022-09-09T03:06:06;98618.53;;;12.87;92.55
73297;BME280;61524;50.938;11.396;2022-09-09T03:08:33;98623.09;;;12.86;92.35
73297;BME280;61524;50.938;11.396;2022-09-09T03:10:59;98618.78;;;12.80;92.58
73297;BME280;61524;50.938;11.396;2022-09-09T03:13:26;98615.28;;;12.85;92.82
73297;BME280;61524;50.938;11.396;2022-09-09T03:15:52;98615.56;;;12.88;92.68
73297;BME280;61524;50.938;11.396;2022-09-09T03:18:17;98611.00;;;12.89;92.72
73297;BME280;61524;50.938;11.396;2022-09-09T03:20:43;98619.63;;;12.81;93.11
73297;BME280;61524;50.938;11.396;2022-09-09T03:23:08;98617.47;;;12.73;93.75
73297;BME280;61524;50.938;11.396;2022-09-09T03:25:34;98611.84;;;12.64;94.45
73297;BME280;61524;50.938;11.396;2022-09-09T03:28:01;98608.94;;;12.60;94.97
73297;BME280;61524;50.938;11.396;2022-09-09T03:30:27;98605.69;;;12.53;95.03
73297;BME280;61524;50.938;11.396;2022-09-09T03:32:52;98606.25;;;12.50;95.64
73297;BME280;61524;50.938;11.396;2022-09-09T03:35:18;98604.91;;;12.58;95.93
73297;BME280;61524;50.938;11.396;2022-09-09T03:37:44;98604.38;;;12.61;96.40
73297;BME280;61524;50.938;11.396;2022-09-09T03:40:10;98606.25;;;12.60;96.24
73297;BME280;61524;50.938;11.396;2022-09-09T03:42:37;98616.97;;;12.60;96.53
73297;BME280;61524;50.938;11.396;2022-09-09T03:45:09;98610.53;;;12.61;95.89
73297;BME280;61524;50.938;11.396;2022-09-09T03:47:36;98626.88;;;12.50;96.10
73297;BME280;61524;50.938;11.396;2022-09-09T03:50:02;98622.34;;;12.50;96.23
73297;BME280;61524;50.938;11.396;2022-09-09T03:52:29;98625.81;;;12.46;96.55
73297;BME280;61524;50.938;11.396;2022-09-09T03:54:55;98626.09;;;12.44;97.05
73297;BME280;61524;50.938;11.396;2022-09-09T03:57:22;98632.78;;;12.37;97.25
73297;BME280;61524;50.938;11.396;2022-09-09T03:59:47;98625.00;;;12.35;97.42
73297;BME280;61524;50.938;11.396;2022-09-09T04:02:13;98623.41;;;12.29;97.42
73297;BME280;61524;50.938;11.396;2022-09-09T04:04:38;98619.13;;;12.33;97.46
73297;BME280;61524;50.938;11.396;2022-09-09T04:07:03;98625.28;;;12.33;97.31
73297;BME280;61524;50.938;11.396;2022-09-09T04:09:32;98622.34;;;12.35;97.06
73297;BME280;61524;50.938;11.396;2022-09-09T04:11:57;98609.75;;;12.35;97.89
73297;BME280;61524;50.938;11.396;2022-09-09T04:14:23;98613.50;;;12.40;97.47
73297;BME280;61524;50.938;11.396;2022-09-09T04:16:48;98602.22;;;12.43;97.84
73297;BME280;61524;50.938;11.396;2022-09-09T04:19:13;98608.13;;;12.45;97.92
73297;BME280;61524;50.938;11.396;2022-09-09T04:21:40;98609.72;;;12.56;97.55
73297;BME280;61524;50.938;11.396;2022-09-09T04:24:08;98601.97;;;12.54;97.26
73297;BME280;61524;50.938;11.396;2022-09-09T04:26:35;98612.69;;;12.49;97.44
73297;BME280;61524;50.938;11.396;2022-09-09T04:29:02;98606.78;;;12.47;97.45
73297;BME280;61524;50.938;11.396;2022-09-09T04:31:28;98594.47;;;12.31;97.33
73297;BME280;61524;50.938;11.396;2022-09-09T04:33:54;98597.41;;;12.24;97.57
73297;BME280;61524;50.938;11.396;2022-09-09T04:36:20;98597.16;;;12.21;97.91
73297;BME280;61524;50.938;11.396;2022-09-09T04:38:46;98598.78;;;12.12;97.83
73297;BME280;61524;50.938;11.396;2022-09-09T04:41:12;98600.88;;;12.04;98.79
73297;BME280;61524;50.938;11.396;2022-09-09T04:43:38;98592.59;;;11.91;98.96
73297;BME280;61524;50.938;11.396;2022-09-09T04:46:04;98600.63;;;11.86;99.27
73297;BME280;61524;50.938;11.396;2022-09-09T04:48:30;98596.28;;;11.79;100.00
73297;BME280;61524;50.938;11.396;2022-09-09T04:51:08;98592.03;;;11.78;100.00
73297;BME280;61524;50.938;11.396;2022-09-09T04:53:36;98600.28;;;11.77;100.00
73297;BME280;61524;50.938;11.396;2022-09-09T04:58:28;98599.22;;;11.68;100.00
73297;BME280;61524;50.938;11.396;2022-09-09T05:00:53;98614.44;;;11.67;100.00
73297;BME280;61524;50.938;11.396;2022-09-09T05:03:19;98618.47;;;11.70;100.00
73297;BME280;61524;50.938;11.396;2022-09-09T05:05:44;98619.56;;;11.69;100.00
73297;BME280;61524;50.938;11.396;2022-09-09T05:08:10;98613.91;;;11.65;100.00
73297;BME280;61524;50.938;11.396;2022-09-09T05:10:37;98619.81;;;11.72;100.00
73297;BME280;61524;50.938;11.396;2022-09-09T05:13:04;98630.81;;;11.76;100.00
73297;BME280;61524;50.938;11.396;2022-09-09T05:15:30;98624.66;;;11.80;100.00
73297;BME280;61524;50.938;11.396;2022-09-09T05:17:58;98635.41;;;11.86;100.00
73297;BME280;61524;50.938;11.396;2022-09-09T05:20:24;98622.31;;;11.84;100.00
73297;BME280;61524;50.938;11.396;2022-09-09T05:22:55;98630.88;;;11.96;100.00
73297;BME280;61524;50.938;11.396;2022-09-09T05:25:22;98644.53;;;12.00;100.00
73297;BME280;61524;50.938;11.396;2022-09-09T05:27:47;98632.22;;;12.04;99.98
73297;BME280;61524;50.938;11.396;2022-09-09T05:30:14;98649.91;;;12.15;100.00
73297;BME280;61524;50.938;11.396;2022-09-09T05:32:40;98649.09;;;12.20;99.96
73297;BME280;61524;50.938;11.396;2022-09-09T05:35:05;98650.19;;;12.29;99.58
73297;BME280;61524;50.938;11.396;2022-09-09T05:37:31;98659.03;;;12.34;99.85
73297;BME280;61524;50.938;11.396;2022-09-09T05:39:56;98652.88;;;12.39;99.22
73297;BME280;61524;50.938;11.396;2022-09-09T05:42:23;98661.44;;;12.46;99.44
73297;BME280;61524;50.938;11.396;2022-09-09T05:44:48;98659.03;;;12.50;98.73
73297;BME280;61524;50.938;11.396;2022-09-09T05:47:14;98655.81;;;12.58;98.85
73297;BME280;61524;50.938;11.396;2022-09-09T05:49:40;98663.59;;;12.65;98.64
73297;BME280;61524;50.938;11.396;2022-09-09T05:52:05;98660.88;;;12.70;98.15
73297;BME280;61524;50.938;11.396;2022-09-09T05:54:31;98651.81;;;12.71;99.09
73297;BME280;61524;50.938;11.396;2022-09-09T05:56:57;98652.03;;;12.74;98.64
73297;BME280;61524;50.938;11.396;2022-09-09T05:59:23;98664.91;;;12.77;98.93
73297;BME280;61524;50.938;11.396;2022-09-09T06:01:48;98657.16;;;12.81;99.41
73297;BME280;61524;50.938;11.396;2022-09-09T06:04:14;98656.59;;;12.79;98.85
73297;BME280;61524;50.938;11.396;2022-09-09T06:06:40;98636.75;;;12.80;99.62
73297;BME280;61524;50.938;11.396;2022-09-09T06:09:08;98641.88;;;12.81;98.54
73297;BME280;61524;50.938;11.396;2022-09-09T06:11:38;98657.38;;;12.95;97.92
73297;BME280;61524;50.938;11.396;2022-09-09T06:14:05;98656.03;;;13.02;97.48
73297;BME280;61524;50.938;11.396;2022-09-09T06:16:31;98646.91;;;13.08;97.74
73297;BME280;61524;50.938;11.396;2022-09-09T06:19:00;98642.31;;;13.19;97.50
73297;BME280;61524;50.938;11.396;2022-09-09T06:21:28;98658.91;;;13.36;96.31
73297;BME280;61524;50.938;11.396;2022-09-09T06:23:54;98631.72;;;13.53;95.45
73297;BME280;61524;50.938;11.396;2022-09-09T06:26:24;98638.13;;;13.62;95.18
73297;BME280;61524;50.938;11.396;2022-09-09T06:28:52;98649.31;;;13.80;94.32
73297;BME280;61524;50.938;11.396;2022-09-09T06:31:20;98651.38;;;13.93;92.49
73297;BME280;61524;50.938;11.396;2022-09-09T06:33:47;98655.25;;;14.21;91.45
73297;BME280;61524;50.938;11.396;2022-09-09T06:36:15;98642.16;;;14.49;89.83
73297;BME280;61524;50.938;11.396;2022-09-09T06:38:42;98640.28;;;14.78;89.96
73297;BME280;61524;50.938;11.396;2022-09-09T06:41:09;98644.50;;;15.13;88.19
73297;BME280;61524;50.938;11.396;2022-09-09T06:43:35;98681.03;;;15.19;87.12
73297;BME280;61524;50.938;11.396;2022-09-09T06:48:31;98674.34;;;15.41;86.25
73297;BME280;61524;50.938;11.396;2022-09-09T06:51:20;98713.22;;;15.54;84.82
73297;BME280;61524;50.938;11.396;2022-09-09T06:53:47;98699.31;;;15.70;84.26
73297;BME280;61524;50.938;11.396;2022-09-09T06:56:20;98749.19;;;15.68;85.22
73297;BME280;61524;50.938;11.396;2022-09-09T06:58:49;98671.66;;;15.60;86.19
73297;BME280;61524;50.938;11.396;2022-09-09T07:01:20;98693.41;;;15.44;87.47
73297;BME280;61524;50.938;11.396;2022-09-09T07:03:50;98699.13;;;15.38;88.25
73297;BME280;61524;50.938;11.396;2022-09-09T07:06:21;98701.34;;;15.31;90.07
73297;BME280;61524;50.938;11.396;2022-09-09T07:08:54;98680.38;;;15.28;90.72
73297;BME280;61524;50.938;11.396;2022-09-09T07:11:22;98678.97;;;15.35;91.05
73297;BME280;61524;50.938;11.396;2022-09-09T07:13:48;98673.91;;;15.53;90.35
73297;BME280;61524;50.938;11.396;2022-09-09T07:16:18;98659.19;;;15.69;85.38
73297;BME280;61524;50.938;11.396;2022-09-09T07:18:44;98645.84;;;15.83;85.74
73297;BME280;61524;50.938;11.396;2022-09-09T07:21:10;98650.91;;;16.03;85.84
73297;BME280;61524;50.938;11.396;2022-09-09T07:23:37;98649.41;;;16.16;84.51
73297;BME280;61524;50.938;11.396;2022-09-09T07:26:08;98662.81;;;16.21;81.93
73297;BME280;61524;50.938;11.396;2022-09-09T07:28:33;98672.81;;;16.34;81.82
73297;BME280;61524;50.938;11.396;2022-09-09T07:31:01;98658.53;;;16.52;81.15
73297;BME280;61524;50.938;11.396;2022-09-09T07:33:29;98647.34;;;16.59;79.59
73297;BME280;61524;50.938;11.396;2022-09-09T07:36:08;98660.00;;;16.45;81.97
73297;BME280;61524;50.938;11.396;2022-09-09T07:38:51;98665.41;;;16.26;81.79
73297;BME280;61524;50.938;11.396;2022-09-09T07:41:21;98667.66;;;16.19;83.00
73297;BME280;61524;50.938;11.396;2022-09-09T07:43:47;98670.75;;;16.31;82.15
73297;BME280;61524;50.938;11.396;2022-09-09T07:46:15;98669.34;;;16.34;81.99
73297;BME280;61524;50.938;11.396;2022-09-09T07:48:47;98664.97;;;16.19;81.94
73297;BME280;61524;50.938;11.396;2022-09-09T07:51:17;98667.00;;;16.08;82.77
73297;BME280;61524;50.938;11.396;2022-09-09T07:53:46;98667.63;;;16.05;82.79
73297;BME280;61524;50.938;11.396;2022-09-09T07:56:14;98666.09;;;15.99;82.67
73297;BME280;61524;50.938;11.396;2022-09-09T07:58:41;98662.84;;;15.97;83.42
73297;BME280;61524;50.938;11.396;2022-09-09T08:01:12;98665.19;;;15.85;84.24
73297;BME280;61524;50.938;11.396;2022-09-09T08:03:38;98669.94;;;15.93;83.56
73297;BME280;61524;50.938;11.396;2022-09-09T08:06:06;98663.91;;;16.20;82.38
73297;BME280;61524;50.938;11.396;2022-09-09T08:08:33;98668.72;;;16.74;81.48
73297;BME280;61524;50.938;11.396;2022-09-09T08:11:13;98678.28;;;17.27;81.34
73297;BME280;61524;50.938;11.396;2022-09-09T08:13:40;98669.28;;;17.59;79.20
73297;BME280;61524;50.938;11.396;2022-09-09T08:16:09;98730.84;;;17.76;77.51
73297;BME280;61524;50.938;11.396;2022-09-09T08:18:35;98737.13;;;17.99;77.54
73297;BME280;61524;50.938;11.396;2022-09-09T08:21:08;98660.03;;;18.24;76.29
73297;BME280;61524;50.938;11.396;2022-09-09T08:23:34;98663.59;;;18.47;75.56
73297;BME280;61524;50.938;11.396;2022-09-09T08:26:11;98725.84;;;18.55;75.72
73297;BME280;61524;50.938;11.396;2022-09-09T08:28:38;98683.34;;;18.56;73.32
73297;BME280;61524;50.938;11.396;2022-09-09T08:33:34;98697.28;;;18.41;73.23
73297;BME280;61524;50.938;11.396;2022-09-09T08:36:02;98709.41;;;18.29;73.66
73297;BME280;61524;50.938;11.396;2022-09-09T08:38:28;98694.63;;;18.13;73.95
73297;BME280;61524;50.938;11.396;2022-09-09T08:41:07;98707.44;;;18.57;73.40
73297;BME280;61524;50.938;11.396;2022-09-09T08:43:35;98724.00;;;19.01;72.02
73297;BME280;61524;50.938;11.396;2022-09-09T08:46:14;98717.91;;;18.95;73.46
73297;BME280;61524;50.938;11.396;2022-09-09T08:48:52;98700.41;;;19.01;72.97
73297;BME280;61524;50.938;11.396;2022-09-09T08:51:21;98711.84;;;18.98;72.59
73297;BME280;61524;50.938;11.396;2022-09-09T08:53:50;98704.69;;;18.71;73.21
73297;BME280;61524;50.938;11.396;2022-09-09T08:56:23;98713.44;;;18.99;72.64
73297;BME280;61524;50.938;11.396;2022-09-09T08:58:51;98713.09;;;19.23;71.47
73297;BME280;61524;50.938;11.396;2022-09-09T09:01:50;98717.13;;;19.34;71.83
73297;BME280;61524;50.938;11.396;2022-09-09T09:06:59;98716.09;;;19.13;70.08
73297;BME280;61524;50.938;11.396;2022-09-09T09:09:57;98716.31;;;18.94;71.79
73297;BME280;61524;50.938;11.396;2022-09-09T09:12:31;98678.66;;;18.84;69.88
73297;BME280;61524;50.938;11.396;2022-09-09T09:15:00;98754.84;;;19.22;70.26
73297;BME280;61524;50.938;11.396;2022-09-09T09:17:28;98667.22;;;19.66;68.40
73297;BME280;61524;50.938;11.396;2022-09-09T09:19:56;98720.75;;;20.09;67.87
73297;BME280;61524;50.938;11.396;2022-09-09T09:22:50;98724.56;;;20.17;66.57
73297;BME280;61524;50.938;11.396;2022-09-09T09:25:22;98741.00;;;20.12;66.65
73297;BME280;61524;50.938;11.396;2022-09-09T09:30:22;98744.41;;;20.35;66.76
73297;BME280;61524;50.938;11.396;2022-09-09T09:33:06;98711.16;;;20.12;68.04
73297;BME280;61524;50.938;11.396;2022-09-09T09:35:39;98723.53;;;19.70;68.50
73297;BME280;61524;50.938;11.396;2022-09-09T09:38:19;98705.03;;;19.72;67.75
73297;BME280;61524;50.938;11.396;2022-09-09T09:40:55;98693.25;;;19.85;67.96
73297;BME280;61524;50.938;11.396;2022-09-09T09:43:34;98694.91;;;20.29;67.37
73297;BME280;61524;50.938;11.396;2022-09-09T09:46:03;98676.41;;;20.49;66.39
73297;BME280;61524;50.938;11.396;2022-09-09T09:48:29;98670.94;;;20.75;65.15
73297;BME280;61524;50.938;11.396;2022-09-09T09:50:56;98670.84;;;21.09;65.82
73297;BME280;61524;50.938;11.396;2022-09-09T09:53:32;98680.00;;;20.87;63.25
73297;BME280;61524;50.938;11.396;2022-09-09T09:58:25;98679.84;;;20.92;64.16
73297;BME280;61524;50.938;11.396;2022-09-09T10:00:53;98694.03;;;20.98;63.45
73297;BME280;61524;50.938;11.396;2022-09-09T10:03:23;98679.91;;;20.40;63.06
73297;BME280;61524;50.938;11.396;2022-09-09T10:05:50;98687.06;;;20.28;66.15
73297;BME280;61524;50.938;11.396;2022-09-09T10:08:17;98684.03;;;19.95;64.93
73297;BME280;61524;50.938;11.396;2022-09-09T10:16:16;98680.50;;;19.94;66.48
73297;BME280;61524;50.938;11.396;2022-09-09T10:18:59;98679.88;;;20.06;64.97
73297;BME280;61524;50.938;11.396;2022-09-09T10:38:09;98660.56;;;19.90;65.94
73297;BME280;61524;50.938;11.396;2022-09-09T10:59:57;98653.91;;;20.13;64.02
73297;BME280;61524;50.938;11.396;2022-09-09T11:02:29;98661.69;;;19.89;63.30
73297;BME280;61524;50.938;11.396;2022-09-09T11:05:02;98662.00;;;19.96;63.21
73297;BME280;61524;50.938;11.396;2022-09-09T11:10:11;98655.28;;;19.76;62.76
73297;BME280;61524;50.938;11.396;2022-09-09T11:12:39;98659.56;;;19.69;64.98
73297;BME280;61524;50.938;11.396;2022-09-09T11:15:17;98656.44;;;20.10;64.16
73297;BME280;61524;50.938;11.396;2022-09-09T11:17:49;98650.22;;;20.53;64.11
73297;BME280;61524;50.938;11.396;2022-09-09T11:20:15;98638.31;;;20.92;61.86
73297;BME280;61524;50.938;11.396;2022-09-09T11:23:01;98647.63;;;20.65;60.78
73297;BME280;61524;50.938;11.396;2022-09-09T11:25:35;98641.00;;;21.01;62.44
73297;BME280;61524;50.938;11.396;2022-09-09T11:28:29;98647.28;;;21.31;60.04
73297;BME280;61524;50.938;11.396;2022-09-09T11:31:07;98663.16;;;21.58;58.75
73297;BME280;61524;50.938;11.396;2022-09-09T11:37:06;98658.91;;;20.93;59.18
73297;BME280;61524;50.938;11.396;2022-09-09T11:39:44;98661.88;;;20.53;58.54
73297;BME280;61524;50.938;11.396;2022-09-09T11:42:22;98666.63;;;20.39;59.92
73297;BME280;61524;50.938;11.396;2022-09-09T11:44:48;98672.06;;;20.22;61.37
73297;BME280;61524;50.938;11.396;2022-09-09T11:47:26;98667.75;;;20.12;61.96
73297;BME280;61524;50.938;11.396;2022-09-09T11:52:43;98669.84;;;20.50;62.36
73297;BME280;61524;50.938;11.396;2022-09-09T11:55:31;98650.19;;;20.44;59.31
73297;BME280;61524;50.938;11.396;2022-09-09T11:58:15;98644.75;;;20.44;59.02
73297;BME280;61524;50.938;11.396;2022-09-09T12:00:44;98658.66;;;20.42;59.40
73297;BME280;61524;50.938;11.396;2022-09-09T12:03:46;98666.47;;;20.44;59.36
73297;BME280;61524;50.938;11.396;2022-09-09T12:06:28;98669.81;;;20.76;58.78
73297;BME280;61524;50.938;11.396;2022-09-09T12:09:09;98664.66;;;21.00;58.89
73297;BME280;61524;50.938;11.396;2022-09-09T12:11:40;98664.50;;;20.96;57.59
73297;BME280;61524;50.938;11.396;2022-09-09T12:14:22;98652.31;;;21.11;57.78
73297;BME280;61524;50.938;11.396;2022-09-09T12:16:49;98641.06;;;20.83;57.65
73297;BME280;61524;50.938;11.396;2022-09-09T12:19:21;98642.63;;;20.93;57.38
73297;BME280;61524;50.938;11.396;2022-09-09T12:22:16;98643.56;;;20.97;57.27
73297;BME280;61524;50.938;11.396;2022-09-09T12:31:24;98641.75;;;20.11;58.10
73297;BME280;61524;50.938;11.396;2022-09-09T12:33:51;98646.88;;;20.30;57.73
73297;BME280;61524;50.938;11.396;2022-09-09T12:36:24;98659.16;;;20.18;62.02
73297;BME280;61524;50.938;11.396;2022-09-09T12:38:53;98654.34;;;19.81;68.45
73297;BME280;61524;50.938;11.396;2022-09-09T12:41:24;98658.50;;;19.87;69.99
73297;BME280;61524;50.938;11.396;2022-09-09T12:43:51;98649.91;;;20.02;66.70
73297;BME280;61524;50.938;11.396;2022-09-09T12:46:46;98646.72;;;19.91;64.05
73297;BME280;61524;50.938;11.396;2022-09-09T12:49:41;98652.75;;;20.23;64.18
73297;BME280;61524;50.938;11.396;2022-09-09T12:52:22;98650.22;;;20.53;61.33
73297;BME280;61524;50.938;11.396;2022-09-09T12:54:49;98658.34;;;20.44;58.42
73297;BME280;61524;50.938;11.396;2022-09-09T12:57:17;98648.13;;;20.32;56.87
73297;BME280;61524;50.938;11.396;2022-09-09T12:59:43;98643.84;;;20.49;58.19
73297;BME280;61524;50.938;11.396;2022-09-09T13:02:22;98636.16;;;20.59;56.55
73297;BME280;61524;50.938;11.396;2022-09-09T13:04:48;98637.72;;;20.78;55.63
73297;BME280;61524;50.938;11.396;2022-09-09T13:07:16;98631.84;;;20.67;56.10
73297;BME280;61524;50.938;11.396;2022-09-09T13:09:42;98622.44;;;20.47;57.36
73297;BME280;61524;50.938;11.396;2022-09-09T13:12:19;98620.03;;;20.54;57.63
73297;BME280;61524;50.938;11.396;2022-09-09T13:14:49;98622.09;;;20.66;60.59
73297;BME280;61524;50.938;11.396;2022-09-09T13:17:23;98621.66;;;21.02;60.54
73297;BME280;61524;50.938;11.396;2022-09-09T13:19:50;98619.44;;;21.04;59.10
73297;BME280;61524;50.938;11.396;2022-09-09T13:22:37;98623.13;;;20.91;59.46
73297;BME280;61524;50.938;11.396;2022-09-09T13:27:39;98624.97;;;20.61;59.73
73297;BME280;61524;50.938;11.396;2022-09-09T13:30:21;98620.38;;;20.61;59.57
73297;BME280;61524;50.938;11.396;2022-09-09T13:33:21;98625.91;;;20.65;58.56
73297;BME280;61524;50.938;11.396;2022-09-09T13:35:50;98617.81;;;20.48;59.57
73297;BME280;61524;50.938;11.396;2022-09-09T13:38:17;98608.56;;;20.23;58.81
73297;BME280;61524;50.938;11.396;2022-09-09T13:41:00;98615.44;;;20.20;60.21
73297;BME280;61524;50.938;11.396;2022-09-09T13:43:47;98619.09;;;19.98;60.37
73297;BME280;61524;50.938;11.396;2022-09-09T13:48:58;98607.91;;;19.74;60.79
73297;BME280;61524;50.938;11.396;2022-09-09T13:51:42;98614.59;;;19.67;62.24
73297;BME280;61524;50.938;11.396;2022-09-09T13:54:12;98617.16;;;19.73;64.97
73297;BME280;61524;50.938;11.396;2022-09-09T13:56:39;98618.38;;;19.49;67.67
73297;BME280;61524;50.938;11.396;2022-09-09T13:59:09;98616.56;;;19.36;68.40
73297;BME280;61524;50.938;11.396;2022-09-09T14:01:35;98617.22;;;19.33;68.75
73297;BME280;61524;50.938;11.396;2022-09-09T14:04:02;98603.03;;;19.27;71.94
73297;BME280;61524;50.938;11.396;2022-09-09T14:06:27;98614.09;;;19.48;70.78
73297;BME280;61524;50.938;11.396;2022-09-09T14:08:54;98606.81;;;19.83;68.09
73297;BME280;61524;50.938;11.396;2022-09-09T14:11:20;98614.16;;;19.91;68.87
73297;BME280;61524;50.938;11.396;2022-09-09T14:13:47;98601.38;;;20.01;67.80
73297;BME280;61524;50.938;11.396;2022-09-09T14:16:18;98589.25;;;20.07;67.58
73297;BME280;61524;50.938;11.396;2022-09-09T14:18:44;98593.13;;;19.97;67.59
73297;BME280;61524;50.938;11.396;2022-09-09T14:21:11;98599.97;;;20.03;67.18
73297;BME280;61524;50.938;11.396;2022-09-09T14:23:37;98598.34;;;20.11;66.20
73297;BME280;61524;50.938;11.396;2022-09-09T14:26:06;98593.56;;;20.16;64.84
73297;BME280;61524;50.938;11.396;2022-09-09T14:28:32;98604.75;;;20.15;65.03
73297;BME280;61524;50.938;11.396;2022-09-09T14:31:03;98597.06;;;20.17;65.14
73297;BME280;61524;50.938;11.396;2022-09-09T14:33:29;98598.84;;;20.13;64.25
73297;BME280;61524;50.938;11.396;2022-09-09T14:36:00;98602.03;;;20.15;65.39
73297;BME280;61524;50.938;11.396;2022-09-09T14:38:29;98592.78;;;20.16;64.45
73297;BME280;61524;50.938;11.396;2022-09-09T14:40:55;98586.84;;;20.23;64.56
73297;BME280;61524;50.938;11.396;2022-09-09T14:43:21;98592.28;;;20.40;60.32
73297;BME280;61524;50.938;11.396;2022-09-09T14:45:47;98587.78;;;20.44;59.42
73297;BME280;61524;50.938;11.396;2022-09-09T14:48:14;98582.34;;;20.44;59.90
73297;BME280;61524;50.938;11.396;2022-09-09T14:50:40;98586.06;;;20.31;59.28
73297;BME280;61524;50.938;11.396;2022-09-09T14:53:07;98581.75;;;20.30;57.99
73297;BME280;61524;50.938;11.396;2022-09-09T14:55:34;98575.06;;;20.18;59.25
73297;BME280;61524;50.938;11.396;2022-09-09T14:57:59;98573.47;;;20.00;58.06
73297;BME280;61524;50.938;11.396;2022-09-09T15:00:25;98568.38;;;19.90;57.17
73297;BME280;61524;50.938;11.396;2022-09-09T15:02:54;98561.34;;;19.72;57.96
73297;BME280;61524;50.938;11.396;2022-09-09T15:05:20;98564.69;;;19.69;57.88
73297;BME280;61524;50.938;11.396;2022-09-09T15:07:46;98562.25;;;19.58;58.41
73297;BME280;61524;50.938;11.396;2022-09-09T15:10:13;98571.38;;;19.62;57.98